sensor_id;sensor_type;location;lat;lon;timestamp;temperature;humidity
3136;DHT22;1578;47.658;9.922;2022-09-21T00:00:43;8.70;63.80
3136;DHT22;1578;47.658;9.922;2022-09-21T00:03:10;8.70;64.80
3136;DHT22;1578;47.658;9.922;2022-09-21T00:05:35;8.70;63.90
3136;DHT22;1578;47.658;9.922;2022-09-21T00:08:03;8.80;63.40
3136;DHT22;1578;47.658;9.922;2022-09-21T00:10:29;8.70;63.90
3136;DHT22;1578;47.658;9.922;2022-09-21T00:12:56;8.70;64.70
3136;DHT22;1578;47.658;9.922;2022-09-21T00:15:22;8.70;64.50
3136;DHT22;1578;47.658;9.922;2022-09-21T00:17:51;8.70;64.90
3136;DHT22;1578;47.658;9.922;2022-09-21T00:20:18;8.60;64.80
3136;DHT22;1578;47.658;9.922;2022-09-21T00:22:44;8.50;66.70
3136;DHT22;1578;47.658;9.922;2022-09-21T00:25:10;8.70;67.00
3136;DHT22;1578;47.658;9.922;2022-09-21T00:27:36;8.50;66.50
3136;DHT22;1578;47.658;9.922;2022-09-21T00:30:02;8.50;66.30
3136;DHT22;1578;47.658;9.922;2022-09-21T00:32:30;8.40;66.40
3136;DHT22;1578;47.658;9.922;2022-09-21T00:34:59;8.40;66.60
3136;DHT22;1578;47.658;9.922;2022-09-21T00:37:26;8.30;67.20
3136;DHT22;1578;47.658;9.922;2022-09-21T00:39:52;8.30;67.10
3136;DHT22;1578;47.658;9.922;2022-09-21T00:42:26;8.40;66.90
3136;DHT22;1578;47.658;9.922;2022-09-21T00:44:52;8.30;65.80
3136;DHT22;1578;47.658;9.922;2022-09-21T00:47:25;8.30;65.50
3136;DHT22;1578;47.658;9.922;2022-09-21T00:49:54;8.30;64.50
3136;DHT22;1578;47.658;9.922;2022-09-21T00:52:22;8.20;64.50
3136;DHT22;1578;47.658;9.922;2022-09-21T00:54:52;8.10;64.00
3136;DHT22;1578;47.658;9.922;2022-09-21T00:57:20;8.10;64.40
3136;DHT22;1578;47.658;9.922;2022-09-21T00:59:49;8.10;64.40
3136;DHT22;1578;47.658;9.922;2022-09-21T01:02:16;8.00;64.80
3136;DHT22;1578;47.658;9.922;2022-09-21T01:04:43;8.00;63.70
3136;DHT22;1578;47.658;9.922;2022-09-21T01:07:14;7.90;63.30
3136;DHT22;1578;47.658;9.922;2022-09-21T01:09:43;7.80;62.80
3136;DHT22;1578;47.658;9.922;2022-09-21T01:12:33;7.70;63.60
3136;DHT22;1578;47.658;9.922;2022-09-21T01:21:24;7.40;63.80
3136;DHT22;1578;47.658;9.922;2022-09-21T01:31:50;7.00;65.40
3136;DHT22;1578;47.658;9.922;2022-09-21T01:34:26;6.90;65.60
3136;DHT22;1578;47.658;9.922;2022-09-21T01:36:56;6.80;65.70
3136;DHT22;1578;47.658;9.922;2022-09-21T01:39:24;6.80;66.10
3136;DHT22;1578;47.658;9.922;2022-09-21T01:41:51;6.70;65.80
3136;DHT22;1578;47.658;9.922;2022-09-21T01:44:22;6.50;65.80
3136;DHT22;1578;47.658;9.922;2022-09-21T01:46:49;6.50;66.50
3136;DHT22;1578;47.658;9.922;2022-09-21T01:49:27;6.50;65.90
3136;DHT22;1578;47.658;9.922;2022-09-21T01:52:03;6.40;64.80
3136;DHT22;1578;47.658;9.922;2022-09-21T01:54:38;6.30;65.70
3136;DHT22;1578;47.658;9.922;2022-09-21T01:57:10;6.10;65.30
3136;DHT22;1578;47.658;9.922;2022-09-21T01:59:55;6.10;65.80
3136;DHT22;1578;47.658;9.922;2022-09-21T02:02:46;6.00;65.10
3136;DHT22;1578;47.658;9.922;2022-09-21T02:05:17;6.00;65.00
3136;DHT22;1578;47.658;9.922;2022-09-21T02:07:42;6.00;64.70
3136;DHT22;1578;47.658;9.922;2022-09-21T02:10:16;5.90;64.10
3136;DHT22;1578;47.658;9.922;2022-09-21T02:12:42;5.80;64.60
3136;DHT22;1578;47.658;9.922;2022-09-21T02:15:08;5.70;64.50
3136;DHT22;1578;47.658;9.922;2022-09-21T02:20:35;5.80;66.20
3136;DHT22;1578;47.658;9.922;2022-09-21T02:23:10;5.60;65.40
3136;DHT22;1578;47.658;9.922;2022-09-21T02:25:58;5.50;66.10
3136;DHT22;1578;47.658;9.922;2022-09-21T02:31:29;5.40;66.60
3136;DHT22;1578;47.658;9.922;2022-09-21T02:34:07;5.30;65.80
3136;DHT22;1578;47.658;9.922;2022-09-21T02:39:35;5.20;67.10
3136;DHT22;1578;47.658;9.922;2022-09-21T02:42:09;5.20;69.10
3136;DHT22;1578;47.658;9.922;2022-09-21T02:44:51;5.10;68.80
3136;DHT22;1578;47.658;9.922;2022-09-21T02:47:32;5.00;70.30
3136;DHT22;1578;47.658;9.922;2022-09-21T02:50:07;5.00;69.90
3136;DHT22;1578;47.658;9.922;2022-09-21T02:52:34;5.00;70.80
3136;DHT22;1578;47.658;9.922;2022-09-21T02:55:05;5.00;68.80
3136;DHT22;1578;47.658;9.922;2022-09-21T02:57:31;4.90;68.10
3136;DHT22;1578;47.658;9.922;2022-09-21T02:59:57;4.80;68.30
3136;DHT22;1578;47.658;9.922;2022-09-21T03:02:23;4.70;69.40
3136;DHT22;1578;47.658;9.922;2022-09-21T03:04:48;4.70;69.40
3136;DHT22;1578;47.658;9.922;2022-09-21T03:07:15;4.70;69.10
3136;DHT22;1578;47.658;9.922;2022-09-21T03:09:41;4.70;68.90
3136;DHT22;1578;47.658;9.922;2022-09-21T03:12:07;4.60;68.30
3136;DHT22;1578;47.658;9.922;2022-09-21T03:14:33;4.60;68.00
3136;DHT22;1578;47.658;9.922;2022-09-21T03:17:04;4.60;67.80
3136;DHT22;1578;47.658;9.922;2022-09-21T03:19:30;4.50;67.80
3136;DHT22;1578;47.658;9.922;2022-09-21T03:21:56;4.40;69.00
3136;DHT22;1578;47.658;9.922;2022-09-21T03:24:21;4.40;69.30
3136;DHT22;1578;47.658;9.922;2022-09-21T03:27:06;4.30;70.10
3136;DHT22;1578;47.658;9.922;2022-09-21T03:29:33;4.20;70.10
3136;DHT22;1578;47.658;9.922;2022-09-21T03:31:58;4.20;70.10
3136;DHT22;1578;47.658;9.922;2022-09-21T03:34:24;4.10;69.40
3136;DHT22;1578;47.658;9.922;2022-09-21T03:36:50;4.20;70.10
3136;DHT22;1578;47.658;9.922;2022-09-21T03:39:15;4.10;69.70
3136;DHT22;1578;47.658;9.922;2022-09-21T03:41:41;4.10;69.20
3136;DHT22;1578;47.658;9.922;2022-09-21T03:44:10;4.10;68.60
3136;DHT22;1578;47.658;9.922;2022-09-21T03:46:36;4.00;68.70
3136;DHT22;1578;47.658;9.922;2022-09-21T03:49:02;4.00;70.70
3136;DHT22;1578;47.658;9.922;2022-09-21T03:51:28;4.00;70.00
3136;DHT22;1578;47.658;9.922;2022-09-21T03:53:56;4.00;70.30
3136;DHT22;1578;47.658;9.922;2022-09-21T03:56:21;3.90;69.90
3136;DHT22;1578;47.658;9.922;2022-09-21T03:58:47;3.80;70.40
3136;DHT22;1578;47.658;9.922;2022-09-21T04:01:13;3.70;71.10
3136;DHT22;1578;47.658;9.922;2022-09-21T04:03:39;3.60;70.50
3136;DHT22;1578;47.658;9.922;2022-09-21T04:06:11;3.50;71.00
3136;DHT22;1578;47.658;9.922;2022-09-21T04:08:37;3.60;71.40
3136;DHT22;1578;47.658;9.922;2022-09-21T04:11:11;3.60;70.70
3136;DHT22;1578;47.658;9.922;2022-09-21T04:13:37;3.50;69.50
3136;DHT22;1578;47.658;9.922;2022-09-21T04:16:04;3.50;68.80
3136;DHT22;1578;47.658;9.922;2022-09-21T04:18:29;3.60;70.60
3136;DHT22;1578;47.658;9.922;2022-09-21T04:20:56;3.70;69.70
3136;DHT22;1578;47.658;9.922;2022-09-21T04:23:22;3.60;70.10
3136;DHT22;1578;47.658;9.922;2022-09-21T04:25:48;3.50;70.40
3136;DHT22;1578;47.658;9.922;2022-09-21T04:28:16;3.40;70.80
3136;DHT22;1578;47.658;9.922;2022-09-21T04:30:41;3.30;70.90
3136;DHT22;1578;47.658;9.922;2022-09-21T04:33:07;3.30;71.30
3136;DHT22;1578;47.658;9.922;2022-09-21T04:35:33;3.30;72.40
3136;DHT22;1578;47.658;9.922;2022-09-21T04:37:58;3.20;73.10
3136;DHT22;1578;47.658;9.922;2022-09-21T04:40:24;3.10;71.50
3136;DHT22;1578;47.658;9.922;2022-09-21T04:42:53;3.00;72.10
3136;DHT22;1578;47.658;9.922;2022-09-21T04:45:20;3.00;71.90
3136;DHT22;1578;47.658;9.922;2022-09-21T04:47:45;3.00;71.90
3136;DHT22;1578;47.658;9.922;2022-09-21T04:50:11;3.00;71.10
3136;DHT22;1578;47.658;9.922;2022-09-21T04:52:37;3.00;69.90
3136;DHT22;1578;47.658;9.922;2022-09-21T04:55:03;3.00;70.50
3136;DHT22;1578;47.658;9.922;2022-09-21T04:57:28;3.00;70.30
3136;DHT22;1578;47.658;9.922;2022-09-21T04:59:54;3.00;70.50
3136;DHT22;1578;47.658;9.922;2022-09-21T05:02:20;3.10;70.50
3136;DHT22;1578;47.658;9.922;2022-09-21T05:04:45;3.00;70.20
3136;DHT22;1578;47.658;9.922;2022-09-21T05:07:11;3.10;70.10
3136;DHT22;1578;47.658;9.922;2022-09-21T05:09:36;3.10;69.60
3136;DHT22;1578;47.658;9.922;2022-09-21T05:12:20;3.00;68.30
3136;DHT22;1578;47.658;9.922;2022-09-21T05:14:46;3.00;69.10
3136;DHT22;1578;47.658;9.922;2022-09-21T05:17:12;2.90;68.70
3136;DHT22;1578;47.658;9.922;2022-09-21T05:19:38;3.00;69.10
3136;DHT22;1578;47.658;9.922;2022-09-21T05:22:03;2.90;68.80
3136;DHT22;1578;47.658;9.922;2022-09-21T05:24:29;2.90;69.60
3136;DHT22;1578;47.658;9.922;2022-09-21T05:26:55;2.90;70.80
3136;DHT22;1578;47.658;9.922;2022-09-21T05:29:21;2.80;70.20
3136;DHT22;1578;47.658;9.922;2022-09-21T05:31:50;2.80;71.00
3136;DHT22;1578;47.658;9.922;2022-09-21T05:37:05;2.80;70.70
3136;DHT22;1578;47.658;9.922;2022-09-21T05:39:31;2.80;71.20
3136;DHT22;1578;47.658;9.922;2022-09-21T05:41:57;2.80;72.30
3136;DHT22;1578;47.658;9.922;2022-09-21T05:44:23;2.90;72.10
3136;DHT22;1578;47.658;9.922;2022-09-21T05:47:06;2.90;72.30
3136;DHT22;1578;47.658;9.922;2022-09-21T05:49:52;3.00;73.60
3136;DHT22;1578;47.658;9.922;2022-09-21T05:52:37;3.00;73.00
3136;DHT22;1578;47.658;9.922;2022-09-21T06:01:21;3.30;76.90
3136;DHT22;1578;47.658;9.922;2022-09-21T06:03:50;3.30;77.10
3136;DHT22;1578;47.658;9.922;2022-09-21T06:06:17;3.50;78.50
3136;DHT22;1578;47.658;9.922;2022-09-21T06:08:43;3.70;79.70
3136;DHT22;1578;47.658;9.922;2022-09-21T06:11:09;3.80;82.10
3136;DHT22;1578;47.658;9.922;2022-09-21T06:13:34;4.00;83.80
3136;DHT22;1578;47.658;9.922;2022-09-21T06:16:03;4.30;83.80
3136;DHT22;1578;47.658;9.922;2022-09-21T06:18:29;4.60;82.20
3136;DHT22;1578;47.658;9.922;2022-09-21T06:20:55;4.90;80.60
3136;DHT22;1578;47.658;9.922;2022-09-21T06:23:20;5.20;79.20
3136;DHT22;1578;47.658;9.922;2022-09-21T06:25:52;5.50;77.30
3136;DHT22;1578;47.658;9.922;2022-09-21T06:28:18;5.80;74.60
3136;DHT22;1578;47.658;9.922;2022-09-21T06:30:50;6.00;70.40
3136;DHT22;1578;47.658;9.922;2022-09-21T06:33:16;6.30;66.40
3136;DHT22;1578;47.658;9.922;2022-09-21T06:35:51;6.50;63.00
3136;DHT22;1578;47.658;9.922;2022-09-21T06:38:17;6.60;61.80
3136;DHT22;1578;47.658;9.922;2022-09-21T06:40:43;6.70;61.80
3136;DHT22;1578;47.658;9.922;2022-09-21T06:43:09;6.70;63.10
3136;DHT22;1578;47.658;9.922;2022-09-21T06:45:34;6.90;63.30
3136;DHT22;1578;47.658;9.922;2022-09-21T06:48:00;7.10;63.50
3136;DHT22;1578;47.658;9.922;2022-09-21T06:50:26;7.30;63.70
3136;DHT22;1578;47.658;9.922;2022-09-21T06:52:51;7.60;61.70
3136;DHT22;1578;47.658;9.922;2022-09-21T06:55:17;7.90;60.80
3136;DHT22;1578;47.658;9.922;2022-09-21T06:57:43;8.10;59.00
3136;DHT22;1578;47.658;9.922;2022-09-21T07:00:11;8.30;57.40
3136;DHT22;1578;47.658;9.922;2022-09-21T07:02:37;8.60;53.80
3136;DHT22;1578;47.658;9.922;2022-09-21T07:05:03;8.90;52.80
3136;DHT22;1578;47.658;9.922;2022-09-21T07:07:29;9.10;53.50
3136;DHT22;1578;47.658;9.922;2022-09-21T07:09:56;9.40;49.70
3136;DHT22;1578;47.658;9.922;2022-09-21T07:12:24;9.70;50.10
3136;DHT22;1578;47.658;9.922;2022-09-21T07:14:50;9.90;50.40
3136;DHT22;1578;47.658;9.922;2022-09-21T07:17:16;10.30;48.10
3136;DHT22;1578;47.658;9.922;2022-09-21T07:19:42;10.60;46.50
3136;DHT22;1578;47.658;9.922;2022-09-21T07:22:10;10.90;43.10
3136;DHT22;1578;47.658;9.922;2022-09-21T07:24:36;11.20;43.20
3136;DHT22;1578;47.658;9.922;2022-09-21T07:27:01;11.40;41.20
3136;DHT22;1578;47.658;9.922;2022-09-21T07:29:27;11.60;42.00
3136;DHT22;1578;47.658;9.922;2022-09-21T07:31:53;12.00;42.20
3136;DHT22;1578;47.658;9.922;2022-09-21T07:34:19;12.20;40.10
3136;DHT22;1578;47.658;9.922;2022-09-21T07:36:45;12.30;38.50
3136;DHT22;1578;47.658;9.922;2022-09-21T07:39:10;12.50;39.30
3136;DHT22;1578;47.658;9.922;2022-09-21T07:41:36;12.70;35.50
3136;DHT22;1578;47.658;9.922;2022-09-21T07:44:02;12.90;36.80
3136;DHT22;1578;47.658;9.922;2022-09-21T07:46:28;13.10;31.70
3136;DHT22;1578;47.658;9.922;2022-09-21T07:48:55;13.20;30.60
3136;DHT22;1578;47.658;9.922;2022-09-21T07:51:21;13.20;34.90
3136;DHT22;1578;47.658;9.922;2022-09-21T07:53:52;13.20;29.00
3136;DHT22;1578;47.658;9.922;2022-09-21T07:56:17;13.20;28.60
3136;DHT22;1578;47.658;9.922;2022-09-21T07:58:44;13.30;21.20
3136;DHT22;1578;47.658;9.922;2022-09-21T08:01:28;13.50;26.50
3136;DHT22;1578;47.658;9.922;2022-09-21T08:03:55;13.80;26.70
3136;DHT22;1578;47.658;9.922;2022-09-21T08:06:23;14.00;17.80
3136;DHT22;1578;47.658;9.922;2022-09-21T08:08:49;14.10;18.90
3136;DHT22;1578;47.658;9.922;2022-09-21T08:11:17;14.30;21.50
3136;DHT22;1578;47.658;9.922;2022-09-21T08:13:44;14.20;17.10
3136;DHT22;1578;47.658;9.922;2022-09-21T08:16:10;14.10;16.90
3136;DHT22;1578;47.658;9.922;2022-09-21T08:18:39;14.20;16.20
3136;DHT22;1578;47.658;9.922;2022-09-21T08:21:07;14.20;13.80
3136;DHT22;1578;47.658;9.922;2022-09-21T08:23:35;14.10;18.10
3136;DHT22;1578;47.658;9.922;2022-09-21T08:26:06;14.10;14.30
3136;DHT22;1578;47.658;9.922;2022-09-21T08:28:32;14.20;10.90
3136;DHT22;1578;47.658;9.922;2022-09-21T08:30:59;14.30;10.90
3136;DHT22;1578;47.658;9.922;2022-09-21T08:33:25;14.30;8.90
3136;DHT22;1578;47.658;9.922;2022-09-21T08:35:53;14.30;11.80
3136;DHT22;1578;47.658;9.922;2022-09-21T08:38:19;14.30;12.60
3136;DHT22;1578;47.658;9.922;2022-09-21T08:40:45;14.40;9.90
3136;DHT22;1578;47.658;9.922;2022-09-21T08:43:17;14.50;10.20
3136;DHT22;1578;47.658;9.922;2022-09-21T08:45:44;14.60;9.80
3136;DHT22;1578;47.658;9.922;2022-09-21T08:48:22;14.60;8.70
3136;DHT22;1578;47.658;9.922;2022-09-21T08:50:52;14.30;10.40
3136;DHT22;1578;47.658;9.922;2022-09-21T08:53:23;14.50;9.80
3136;DHT22;1578;47.658;9.922;2022-09-21T08:55:53;14.60;8.20
3136;DHT22;1578;47.658;9.922;2022-09-21T08:58:24;14.70;11.20
3136;DHT22;1578;47.658;9.922;2022-09-21T09:07:05;15.00;10.60
3136;DHT22;1578;47.658;9.922;2022-09-21T09:09:56;14.90;8.40
3136;DHT22;1578;47.658;9.922;2022-09-21T09:12:56;15.00;9.30
3136;DHT22;1578;47.658;9.922;2022-09-21T09:18:42;15.20;8.80
3136;DHT22;1578;47.658;9.922;2022-09-21T09:21:19;15.40;8.70
3136;DHT22;1578;47.658;9.922;2022-09-21T09:23:51;15.70;4.90
3136;DHT22;1578;47.658;9.922;2022-09-21T09:26:22;15.90;7.90
3136;DHT22;1578;47.658;9.922;2022-09-21T09:31:24;16.00;8.60
3136;DHT22;1578;47.658;9.922;2022-09-21T09:34:15;16.20;6.00
3136;DHT22;1578;47.658;9.922;2022-09-21T09:36:51;16.40;5.70
3136;DHT22;1578;47.658;9.922;2022-09-21T09:39:18;16.30;6.00
3136;DHT22;1578;47.658;9.922;2022-09-21T09:41:54;15.90;6.50
3136;DHT22;1578;47.658;9.922;2022-09-21T09:50:17;15.80;6.90
3136;DHT22;1578;47.658;9.922;2022-09-21T09:52:45;16.00;7.80
3136;DHT22;1578;47.658;9.922;2022-09-21T09:55:21;16.10;7.10
3136;DHT22;1578;47.658;9.922;2022-09-21T09:57:48;16.30;8.10
3136;DHT22;1578;47.658;9.922;2022-09-21T10:00:17;16.30;5.60
3136;DHT22;1578;47.658;9.922;2022-09-21T10:02:55;16.50;6.90
3136;DHT22;1578;47.658;9.922;2022-09-21T10:07:50;16.40;5.60
3136;DHT22;1578;47.658;9.922;2022-09-21T10:12:55;16.40;5.40
3136;DHT22;1578;47.658;9.922;2022-09-21T10:15:23;16.30;3.90
3136;DHT22;1578;47.658;9.922;2022-09-21T10:18:17;16.40;6.30
3136;DHT22;1578;47.658;9.922;2022-09-21T10:20:54;16.60;5.00
3136;DHT22;1578;47.658;9.922;2022-09-21T10:23:20;16.30;7.40
3136;DHT22;1578;47.658;9.922;2022-09-21T10:26:08;16.30;6.10
3136;DHT22;1578;47.658;9.922;2022-09-21T10:28:35;16.20;8.50
3136;DHT22;1578;47.658;9.922;2022-09-21T10:31:27;16.40;9.20
3136;DHT22;1578;47.658;9.922;2022-09-21T10:36:25;16.60;9.00
3136;DHT22;1578;47.658;9.922;2022-09-21T10:38:51;16.70;9.30
3136;DHT22;1578;47.658;9.922;2022-09-21T10:41:18;16.40;6.10
3136;DHT22;1578;47.658;9.922;2022-09-21T10:43:43;16.50;4.50
3136;DHT22;1578;47.658;9.922;2022-09-21T10:46:10;16.60;4.20
3136;DHT22;1578;47.658;9.922;2022-09-21T10:48:36;16.80;7.60
3136;DHT22;1578;47.658;9.922;2022-09-21T10:51:02;16.90;5.20
3136;DHT22;1578;47.658;9.922;2022-09-21T10:53:32;16.90;3.60
3136;DHT22;1578;47.658;9.922;2022-09-21T10:58:31;17.20;2.70
3136;DHT22;1578;47.658;9.922;2022-09-21T11:01:11;17.20;3.70
3136;DHT22;1578;47.658;9.922;2022-09-21T11:06:28;17.00;3.70
3136;DHT22;1578;47.658;9.922;2022-09-21T11:09:02;17.10;5.90
3136;DHT22;1578;47.658;9.922;2022-09-21T11:11:52;17.20;3.80
3136;DHT22;1578;47.658;9.922;2022-09-21T11:14:40;17.10;5.90
3136;DHT22;1578;47.658;9.922;2022-09-21T11:17:13;17.20;4.50
3136;DHT22;1578;47.658;9.922;2022-09-21T11:20:12;17.50;3.50
3136;DHT22;1578;47.658;9.922;2022-09-21T11:22:59;17.70;4.80
3136;DHT22;1578;47.658;9.922;2022-09-21T11:25:57;17.80;4.60
3136;DHT22;1578;47.658;9.922;2022-09-21T11:28:29;18.20;3.20
3136;DHT22;1578;47.658;9.922;2022-09-21T11:39:02;20.20;1.70
3136;DHT22;1578;47.658;9.922;2022-09-21T11:47:34;22.30;1.00
3136;DHT22;1578;47.658;9.922;2022-09-21T11:50:08;22.70;1.00
3136;DHT22;1578;47.658;9.922;2022-09-21T11:58:19;23.20;1.00
3136;DHT22;1578;47.658;9.922;2022-09-21T12:07:01;23.00;1.00
3136;DHT22;1578;47.658;9.922;2022-09-21T12:12:37;23.10;1.00
3136;DHT22;1578;47.658;9.922;2022-09-21T12:18:01;23.00;1.00
3136;DHT22;1578;47.658;9.922;2022-09-21T12:20:37;23.40;1.00
3136;DHT22;1578;47.658;9.922;2022-09-21T12:23:12;23.20;1.00
3136;DHT22;1578;47.658;9.922;2022-09-21T12:25:41;23.50;1.00
3136;DHT22;1578;47.658;9.922;2022-09-21T12:28:26;23.40;1.00
3136;DHT22;1578;47.658;9.922;2022-09-21T12:30:57;23.40;1.00
3136;DHT22;1578;47.658;9.922;2022-09-21T12:33:50;23.10;1.00
3136;DHT22;1578;47.658;9.922;2022-09-21T12:36:24;23.50;1.00
3136;DHT22;1578;47.658;9.922;2022-09-21T12:47:20;22.20;1.00
3136;DHT22;1578;47.658;9.922;2022-09-21T12:49:48;22.00;1.00
3136;DHT22;1578;47.658;9.922;2022-09-21T12:52:24;21.60;1.00
3136;DHT22;1578;47.658;9.922;2022-09-21T12:55:19;21.40;1.00
3136;DHT22;1578;47.658;9.922;2022-09-21T12:57:56;20.90;1.00
3136;DHT22;1578;47.658;9.922;2022-09-21T13:00:27;20.20;1.00
3136;DHT22;1578;47.658;9.922;2022-09-21T13:03:01;19.70;1.00
3136;DHT22;1578;47.658;9.922;2022-09-21T13:08:29;19.00;2.10
3136;DHT22;1578;47.658;9.922;2022-09-21T13:11:01;18.80;2.80
3136;DHT22;1578;47.658;9.922;2022-09-21T13:13:44;18.10;1.10
3136;DHT22;1578;47.658;9.922;2022-09-21T13:19:02;17.60;2.20
3136;DHT22;1578;47.658;9.922;2022-09-21T13:21:30;17.70;3.50
3136;DHT22;1578;47.658;9.922;2022-09-21T13:24:04;17.70;2.80
3136;DHT22;1578;47.658;9.922;2022-09-21T13:26:51;17.80;2.50
3136;DHT22;1578;47.658;9.922;2022-09-21T13:34:42;17.20;6.40
3136;DHT22;1578;47.658;9.922;2022-09-21T13:44:56;17.40;2.00
3136;DHT22;1578;47.658;9.922;2022-09-21T13:47:33;17.20;2.20
3136;DHT22;1578;47.658;9.922;2022-09-21T13:53:21;17.10;1.30
3136;DHT22;1578;47.658;9.922;2022-09-21T13:55:53;17.10;1.30
3136;DHT22;1578;47.658;9.922;2022-09-21T13:58:31;17.20;1.40
3136;DHT22;1578;47.658;9.922;2022-09-21T14:01:20;17.10;1.90
3136;DHT22;1578;47.658;9.922;2022-09-21T14:03:51;17.10;4.20
3136;DHT22;1578;47.658;9.922;2022-09-21T14:06:31;17.10;2.20
3136;DHT22;1578;47.658;9.922;2022-09-21T14:09:17;17.00;2.90
3136;DHT22;1578;47.658;9.922;2022-09-21T14:11:44;17.10;5.60
3136;DHT22;1578;47.658;9.922;2022-09-21T14:14:30;17.10;4.40
3136;DHT22;1578;47.658;9.922;2022-09-21T14:17:00;17.30;4.60
3136;DHT22;1578;47.658;9.922;2022-09-21T14:24:38;17.10;4.50
3136;DHT22;1578;47.658;9.922;2022-09-21T14:30:25;17.10;4.40
3136;DHT22;1578;47.658;9.922;2022-09-21T14:35:27;16.80;3.40
3136;DHT22;1578;47.658;9.922;2022-09-21T14:38:12;16.60;4.10
3136;DHT22;1578;47.658;9.922;2022-09-21T14:40:45;16.60;4.20
3136;DHT22;1578;47.658;9.922;2022-09-21T14:43:16;16.60;5.20
3136;DHT22;1578;47.658;9.922;2022-09-21T14:49:17;17.00;4.40
3136;DHT22;1578;47.658;9.922;2022-09-21T14:58:11;16.40;4.40
3136;DHT22;1578;47.658;9.922;2022-09-21T15:00:44;16.30;4.30
3136;DHT22;1578;47.658;9.922;2022-09-21T15:06:09;16.50;4.00
3136;DHT22;1578;47.658;9.922;2022-09-21T15:12:26;16.30;4.00
3136;DHT22;1578;47.658;9.922;2022-09-21T15:15:27;16.40;3.90
3136;DHT22;1578;47.658;9.922;2022-09-21T15:17:58;16.50;4.60
3136;DHT22;1578;47.658;9.922;2022-09-21T15:20:26;16.50;5.20
3136;DHT22;1578;47.658;9.922;2022-09-21T15:22:56;16.40;4.10
3136;DHT22;1578;47.658;9.922;2022-09-21T15:25:28;16.30;3.90
3136;DHT22;1578;47.658;9.922;2022-09-21T15:27:55;16.20;3.80
3136;DHT22;1578;47.658;9.922;2022-09-21T15:30:24;16.10;3.80
3136;DHT22;1578;47.658;9.922;2022-09-21T15:32:59;16.10;5.20
3136;DHT22;1578;47.658;9.922;2022-09-21T15:35:27;16.00;4.20
3136;DHT22;1578;47.658;9.922;2022-09-21T15:37:55;16.00;3.70
3136;DHT22;1578;47.658;9.922;2022-09-21T15:40:24;15.80;3.50
3136;DHT22;1578;47.658;9.922;2022-09-21T15:45:47;15.60;4.30
3136;DHT22;1578;47.658;9.922;2022-09-21T15:48:16;15.50;3.30
3136;DHT22;1578;47.658;9.922;2022-09-21T15:50:43;15.40;4.40
3136;DHT22;1578;47.658;9.922;2022-09-21T15:53:25;15.30;4.60
3136;DHT22;1578;47.658;9.922;2022-09-21T15:55:53;15.10;4.80
3136;DHT22;1578;47.658;9.922;2022-09-21T15:58:36;15.00;5.40
3136;DHT22;1578;47.658;9.922;2022-09-21T16:01:08;14.80;5.90
3136;DHT22;1578;47.658;9.922;2022-09-21T16:03:35;14.80;6.10
3136;DHT22;1578;47.658;9.922;2022-09-21T16:06:22;14.80;6.20
3136;DHT22;1578;47.658;9.922;2022-09-21T16:08:49;14.60;5.40
3136;DHT22;1578;47.658;9.922;2022-09-21T16:13:41;14.40;6.40
3136;DHT22;1578;47.658;9.922;2022-09-21T16:16:27;14.50;7.80
3136;DHT22;1578;47.658;9.922;2022-09-21T16:18:54;14.30;6.80
3136;DHT22;1578;47.658;9.922;2022-09-21T16:21:34;14.20;8.00
3136;DHT22;1578;47.658;9.922;2022-09-21T16:24:19;14.00;7.70
3136;DHT22;1578;47.658;9.922;2022-09-21T16:26:57;14.10;8.60
3136;DHT22;1578;47.658;9.922;2022-09-21T16:29:25;14.00;7.90
3136;DHT22;1578;47.658;9.922;2022-09-21T16:34:44;13.90;10.30
3136;DHT22;1578;47.658;9.922;2022-09-21T16:37:24;13.70;8.30
3136;DHT22;1578;47.658;9.922;2022-09-21T16:39:57;13.60;8.70
3136;DHT22;1578;47.658;9.922;2022-09-21T16:42:25;13.50;9.80
3136;DHT22;1578;47.658;9.922;2022-09-21T16:44:53;13.50;9.40
3136;DHT22;1578;47.658;9.922;2022-09-21T16:47:24;13.40;10.30
3136;DHT22;1578;47.658;9.922;2022-09-21T16:49:51;13.40;10.30
3136;DHT22;1578;47.658;9.922;2022-09-21T16:52:21;13.30;11.40
3136;DHT22;1578;47.658;9.922;2022-09-21T16:54:48;13.30;11.00
3136;DHT22;1578;47.658;9.922;2022-09-21T16:57:15;13.20;12.50
3136;DHT22;1578;47.658;9.922;2022-09-21T16:59:41;13.20;13.80
3136;DHT22;1578;47.658;9.922;2022-09-21T17:02:09;13.10;13.10
3136;DHT22;1578;47.658;9.922;2022-09-21T17:04:38;13.00;14.20
3136;DHT22;1578;47.658;9.922;2022-09-21T17:07:05;13.00;14.20
3136;DHT22;1578;47.658;9.922;2022-09-21T17:09:33;12.90;17.10
3136;DHT22;1578;47.658;9.922;2022-09-21T17:12:01;12.80;14.20
3136;DHT22;1578;47.658;9.922;2022-09-21T17:14:31;12.70;15.60
3136;DHT22;1578;47.658;9.922;2022-09-21T17:17:15;12.70;15.00
3136;DHT22;1578;47.658;9.922;2022-09-21T17:19:42;12.60;15.70
3136;DHT22;1578;47.658;9.922;2022-09-21T17:22:11;12.60;18.00
3136;DHT22;1578;47.658;9.922;2022-09-21T17:24:49;12.50;18.90
3136;DHT22;1578;47.658;9.922;2022-09-21T17:27:16;12.50;17.00
3136;DHT22;1578;47.658;9.922;2022-09-21T17:29:43;12.30;18.80
3136;DHT22;1578;47.658;9.922;2022-09-21T17:32:18;12.20;21.50
3136;DHT22;1578;47.658;9.922;2022-09-21T17:34:59;12.00;23.00
3136;DHT22;1578;47.658;9.922;2022-09-21T17:37:25;11.90;23.30
3136;DHT22;1578;47.658;9.922;2022-09-21T17:39:51;11.80;24.20
3136;DHT22;1578;47.658;9.922;2022-09-21T17:42:19;11.70;25.20
3136;DHT22;1578;47.658;9.922;2022-09-21T17:47:46;11.40;28.30
3136;DHT22;1578;47.658;9.922;2022-09-21T17:50:21;11.30;27.10
3136;DHT22;1578;47.658;9.922;2022-09-21T17:52:48;11.20;28.20
3136;DHT22;1578;47.658;9.922;2022-09-21T17:55:33;11.00;28.20
3136;DHT22;1578;47.658;9.922;2022-09-21T18:03:23;10.70;29.10
3136;DHT22;1578;47.658;9.922;2022-09-21T18:05:51;10.60;29.20
3136;DHT22;1578;47.658;9.922;2022-09-21T18:08:24;10.50;30.00
3136;DHT22;1578;47.658;9.922;2022-09-21T18:13:38;10.30;33.60
3136;DHT22;1578;47.658;9.922;2022-09-21T18:16:18;10.20;34.00
3136;DHT22;1578;47.658;9.922;2022-09-21T18:21:22;10.00;33.50
3136;DHT22;1578;47.658;9.922;2022-09-21T18:26:33;9.90;35.50
3136;DHT22;1578;47.658;9.922;2022-09-21T18:28:59;9.80;36.00
3136;DHT22;1578;47.658;9.922;2022-09-21T18:34:21;9.60;36.30
3136;DHT22;1578;47.658;9.922;2022-09-21T18:42:22;9.20;37.40
3136;DHT22;1578;47.658;9.922;2022-09-21T18:44:55;9.20;42.20
3136;DHT22;1578;47.658;9.922;2022-09-21T18:50:32;9.20;41.40
3136;DHT22;1578;47.658;9.922;2022-09-21T18:53:28;9.00;41.60
3136;DHT22;1578;47.658;9.922;2022-09-21T18:55:59;9.00;42.20
3136;DHT22;1578;47.658;9.922;2022-09-21T18:58:25;8.80;41.80
3136;DHT22;1578;47.658;9.922;2022-09-21T19:00:52;8.60;42.60
3136;DHT22;1578;47.658;9.922;2022-09-21T19:03:19;8.70;45.10
3136;DHT22;1578;47.658;9.922;2022-09-21T19:12:01;8.30;47.10
3136;DHT22;1578;47.658;9.922;2022-09-21T19:17:41;8.20;46.80
3136;DHT22;1578;47.658;9.922;2022-09-21T19:20:45;8.10;48.00
3136;DHT22;1578;47.658;9.922;2022-09-21T19:26:02;8.10;49.40
3136;DHT22;1578;47.658;9.922;2022-09-21T19:31:19;8.10;50.60
3136;DHT22;1578;47.658;9.922;2022-09-21T19:33:46;8.10;47.50
3136;DHT22;1578;47.658;9.922;2022-09-21T19:36:12;8.00;47.90
3136;DHT22;1578;47.658;9.922;2022-09-21T19:38:39;8.00;49.30
3136;DHT22;1578;47.658;9.922;2022-09-21T19:41:35;7.90;49.30
3136;DHT22;1578;47.658;9.922;2022-09-21T19:49:19;8.10;49.90
3136;DHT22;1578;47.658;9.922;2022-09-21T19:51:51;8.00;49.20
3136;DHT22;1578;47.658;9.922;2022-09-21T19:54:22;7.90;49.60
3136;DHT22;1578;47.658;9.922;2022-09-21T19:57:16;8.00;50.90
3136;DHT22;1578;47.658;9.922;2022-09-21T20:00:01;7.90;48.80
3136;DHT22;1578;47.658;9.922;2022-09-21T20:02:35;7.80;49.10
3136;DHT22;1578;47.658;9.922;2022-09-21T20:07:47;7.70;49.60
3136;DHT22;1578;47.658;9.922;2022-09-21T20:15:51;7.60;52.20